createdAt,value
2023-02-19T00:00:42.914Z,75.23
2023-02-19T00:05:50.093Z,75.14
2023-02-19T00:11:01.029Z,75.27
2023-02-19T00:16:11.333Z,75.35
2023-02-19T00:21:19.439Z,75.25
2023-02-19T00:26:26.849Z,75.14
2023-02-19T00:31:35.963Z,75.35
2023-02-19T00:36:44.629Z,75.37
2023-02-19T00:41:51.866Z,75.31
2023-02-19T00:46:59.074Z,75.35
2023-02-19T00:52:06.508Z,75.44
2023-02-19T00:57:13.686Z,75.50
2023-02-19T01:02:20.872Z,75.43
2023-02-19T01:07:29.888Z,75.62
2023-02-19T01:12:37.120Z,75.52
2023-02-19T01:17:44.508Z,75.58
2023-02-19T01:22:51.899Z,75.58
2023-02-19T01:27:59.183Z,75.60
2023-02-19T01:33:06.685Z,75.56
2023-02-19T01:38:13.894Z,75.57
2023-02-19T01:43:21.274Z,75.61
2023-02-19T01:48:33.497Z,75.72
2023-02-19T01:53:43.926Z,75.68
2023-02-19T01:58:51.208Z,75.66
2023-02-19T02:03:58.630Z,75.58
2023-02-19T02:09:23.382Z,75.69
2023-02-19T02:14:35.401Z,75.79
2023-02-19T02:20:02.875Z,75.80
2023-02-19T02:25:35.656Z,75.79
2023-02-19T02:30:47.571Z,75.82
2023-02-19T02:35:59.486Z,75.83
2023-02-19T02:41:08.844Z,75.74
2023-02-19T02:46:24.361Z,75.93
2023-02-19T02:51:35.737Z,75.88
2023-02-19T02:56:47.799Z,75.66
2023-02-19T03:02:12.236Z,75.83
2023-02-19T03:07:19.932Z,75.93
2023-02-19T03:12:48.182Z,75.86
2023-02-19T03:18:19.304Z,75.84
2023-02-19T03:23:44.958Z,75.80
2023-02-19T03:29:12.251Z,75.83
2023-02-19T03:34:27.101Z,75.90
2023-02-19T03:39:44.616Z,75.93
2023-02-19T03:45:08.010Z,76.03
2023-02-19T03:50:21.222Z,76.08
2023-02-19T03:55:33.979Z,76.20
2023-02-19T04:00:45.721Z,76.18
2023-02-19T04:06:01.002Z,76.14
2023-02-19T04:11:10.740Z,76.13
2023-02-19T04:16:24.001Z,76.38
2023-02-19T04:21:33.450Z,76.25
2023-02-19T04:26:41.506Z,76.32
2023-02-19T04:31:47.114Z,76.32
2023-02-19T04:37:05.386Z,76.44
2023-02-19T04:42:13.398Z,76.36
2023-02-19T04:47:18.983Z,76.28
2023-02-19T04:52:26.205Z,76.31
2023-02-19T04:57:33.435Z,76.36
2023-02-19T05:02:40.686Z,76.55
2023-02-19T05:07:47.842Z,76.60
2023-02-19T05:12:57.933Z,76.53
2023-02-19T05:18:05.835Z,76.51
2023-02-19T05:23:13.087Z,76.56
2023-02-19T05:28:20.881Z,76.62
2023-02-19T05:33:28.698Z,76.58
2023-02-19T05:38:36.390Z,76.45
2023-02-19T05:43:45.328Z,76.59
2023-02-19T05:48:53.142Z,76.49
2023-02-19T05:54:00.727Z,76.45
2023-02-19T05:59:15.336Z,76.71
2023-02-19T06:04:23.607Z,76.82
2023-02-19T06:09:32.418Z,76.79
2023-02-19T06:14:39.610Z,76.83
2023-02-19T06:19:46.961Z,76.81
2023-02-19T06:24:55.342Z,76.64
2023-02-19T06:30:02.664Z,76.64
2023-02-19T06:35:10.573Z,76.83
2023-02-19T06:40:16.293Z,76.89
2023-02-19T06:45:24.405Z,76.88
2023-02-19T06:50:31.632Z,76.94
2023-02-19T06:55:40.437Z,77.02
2023-02-19T07:00:47.792Z,76.96
2023-02-19T07:05:55.029Z,76.82
2023-02-19T07:11:02.244Z,76.93
2023-02-19T07:16:11.378Z,77.03
2023-02-19T07:21:19.696Z,77.13
2023-02-19T07:26:27.158Z,77.14
2023-02-19T07:31:34.678Z,77.07
2023-02-19T07:36:42.064Z,77.05
2023-02-19T07:41:49.270Z,77.01
2023-02-19T07:47:06.635Z,77.10
2023-02-19T07:52:13.979Z,77.05
2023-02-19T07:57:21.249Z,77.02
2023-02-19T08:02:46.337Z,76.85
2023-02-19T08:07:53.551Z,77.06
2023-02-19T08:13:19.580Z,77.05
2023-02-19T08:18:28.471Z,77.14
2023-02-19T08:23:35.907Z,77.03
2023-02-19T08:28:43.198Z,77.05
2023-02-19T08:33:50.624Z,76.72
2023-02-19T08:38:57.850Z,76.58
2023-02-19T08:44:05.359Z,75.98
2023-02-19T08:49:12.454Z,75.64
2023-02-19T08:54:19.652Z,75.62
2023-02-19T08:59:26.975Z,75.30
2023-02-19T09:04:34.543Z,75.49
2023-02-19T09:09:41.818Z,75.42
2023-02-19T09:14:49.117Z,75.20
2023-02-19T09:19:56.427Z,75.10
2023-02-19T09:25:03.749Z,75.02
2023-02-19T09:30:12.120Z,74.94
2023-02-19T09:35:19.530Z,75.00
2023-02-19T09:40:26.932Z,74.70
2023-02-19T09:45:36.038Z,74.61
2023-02-19T09:50:48.387Z,73.93
2023-02-19T09:55:56.714Z,73.55
2023-02-19T10:01:08.019Z,73.74
2023-02-19T10:06:20.636Z,72.90
2023-02-19T10:11:28.728Z,72.62
2023-02-19T10:16:41.780Z,73.41
2023-02-19T10:21:51.959Z,73.31
2023-02-19T10:26:59.692Z,72.85
2023-02-19T10:32:23.965Z,72.82
2023-02-19T10:37:31.320Z,72.62
2023-02-19T10:42:49.276Z,72.04
2023-02-19T10:47:56.550Z,71.57
2023-02-19T10:53:04.011Z,71.45
2023-02-19T10:58:28.670Z,71.33
2023-02-19T11:03:36.024Z,71.51
2023-02-19T11:08:58.798Z,71.29
2023-02-19T11:14:15.630Z,71.24
2023-02-19T11:19:33.033Z,71.01
2023-02-19T11:24:41.460Z,70.61
2023-02-19T11:29:48.889Z,70.57
2023-02-19T11:35:17.943Z,70.45
2023-02-19T11:40:35.020Z,70.22
2023-02-19T11:45:51.583Z,70.35
2023-02-19T11:51:13.680Z,70.24
2023-02-19T11:56:25.032Z,70.17
2023-02-19T12:02:03.515Z,69.88
2023-02-19T12:07:22.717Z,69.63
2023-02-19T12:12:44.372Z,69.52
2023-02-19T12:18:06.782Z,69.32
2023-02-19T12:23:45.452Z,69.05
2023-02-19T12:29:32.488Z,68.62
2023-02-19T12:35:22.192Z,68.57
2023-02-19T12:40:40.620Z,68.17
2023-02-19T12:45:54.178Z,67.81
2023-02-19T12:51:06.395Z,67.68
2023-02-19T12:56:20.117Z,67.49
2023-02-19T13:01:32.487Z,67.35
2023-02-19T13:06:46.718Z,67.38
2023-02-19T13:12:00.545Z,67.46
2023-02-19T13:17:16.979Z,66.98
2023-02-19T13:22:50.754Z,66.96
2023-02-19T13:28:12.864Z,66.70
2023-02-19T13:33:35.345Z,66.52
2023-02-19T13:38:45.300Z,66.43
2023-02-19T13:44:00.822Z,66.25
2023-02-19T13:49:43.017Z,66.22
2023-02-19T13:54:51.481Z,66.09
2023-02-19T14:00:00.307Z,65.88
2023-02-19T14:05:11.234Z,65.85
2023-02-19T14:11:05.061Z,65.66
2023-02-19T14:16:32.828Z,65.49
2023-02-19T14:21:43.545Z,65.44
2023-02-19T14:26:51.123Z,65.28
2023-02-19T14:31:58.857Z,65.01
2023-02-19T14:37:13.342Z,64.90
2023-02-19T14:42:25.255Z,64.62
2023-02-19T14:47:35.244Z,64.57
2023-02-19T14:52:46.689Z,64.45
2023-02-19T14:57:56.430Z,64.49
2023-02-19T15:03:04.591Z,64.30
2023-02-19T15:08:19.895Z,64.23
2023-02-19T15:13:29.542Z,64.16
2023-02-19T15:18:38.532Z,63.97
2023-02-19T15:23:45.961Z,63.94
2023-02-19T15:29:02.678Z,63.62
2023-02-19T15:34:19.292Z,63.68
2023-02-19T15:39:30.978Z,63.63
2023-02-19T15:44:50.820Z,63.60
2023-02-19T15:50:05.011Z,63.58
2023-02-19T15:55:23.144Z,63.49
2023-02-19T16:00:38.740Z,63.49
2023-02-19T16:05:46.468Z,63.56
2023-02-19T16:10:58.868Z,63.37
2023-02-19T16:16:17.516Z,63.30
2023-02-19T16:21:29.520Z,63.29
2023-02-19T16:26:44.427Z,63.15
2023-02-19T16:31:55.811Z,63.13
2023-02-19T16:37:04.769Z,63.17
2023-02-19T16:42:19.498Z,63.22
2023-02-19T16:47:48.525Z,63.08
2023-02-19T16:52:57.602Z,63.10
2023-02-19T16:58:04.915Z,63.10
2023-02-19T17:03:15.469Z,63.09
2023-02-19T17:08:39.829Z,63.15
2023-02-19T17:13:48.207Z,63.34
2023-02-19T17:18:58.589Z,63.26
2023-02-19T17:24:06.143Z,63.38
2023-02-19T17:29:18.600Z,63.28
2023-02-19T17:34:25.980Z,63.29
2023-02-19T17:39:33.396Z,63.41
2023-02-19T17:44:40.870Z,63.28
2023-02-19T17:49:48.461Z,63.28
2023-02-19T17:54:58.569Z,63.21
2023-02-19T18:00:07.475Z,63.37
2023-02-19T18:05:20.158Z,63.29
2023-02-19T18:10:27.660Z,63.39
2023-02-19T18:15:34.975Z,63.49
2023-02-19T18:20:43.707Z,63.61
2023-02-19T18:25:51.442Z,63.69
2023-02-19T18:30:59.162Z,63.60
2023-02-19T18:36:11.001Z,63.61
2023-02-19T18:41:21.243Z,63.88
2023-02-19T18:46:29.409Z,63.90
2023-02-19T18:51:37.930Z,64.05
2023-02-19T18:56:49.004Z,64.15
2023-02-19T19:01:56.476Z,64.12
2023-02-19T19:07:03.848Z,64.22
2023-02-19T19:12:13.012Z,64.27
2023-02-19T19:17:21.716Z,64.42
2023-02-19T19:22:29.710Z,64.41
2023-02-19T19:27:38.749Z,64.48
2023-02-19T19:32:52.097Z,64.55
2023-02-19T19:38:00.239Z,64.54
2023-02-19T19:43:07.979Z,64.64
2023-02-19T19:48:15.841Z,64.68
2023-02-19T19:53:23.280Z,64.65
2023-02-19T19:58:30.534Z,64.71
2023-02-19T20:03:41.034Z,64.71
2023-02-19T20:08:48.316Z,64.74
2023-02-19T20:13:55.913Z,64.82
2023-02-19T20:19:03.370Z,64.99
2023-02-19T20:24:11.091Z,64.90
2023-02-19T20:29:18.588Z,64.94
2023-02-19T20:34:26.000Z,65.18
2023-02-19T20:39:34.087Z,65.14
2023-02-19T20:44:43.734Z,65.22
2023-02-19T20:49:56.730Z,65.29
2023-02-19T20:55:04.069Z,65.49
2023-02-19T21:00:15.761Z,65.49
2023-02-19T21:05:23.597Z,65.46
2023-02-19T21:10:30.892Z,65.55
2023-02-19T21:15:38.188Z,65.68
2023-02-19T21:20:45.634Z,65.64
2023-02-19T21:25:54.573Z,65.72
2023-02-19T21:31:02.127Z,65.77
2023-02-19T21:36:11.125Z,65.73
2023-02-19T21:41:19.146Z,65.80
2023-02-19T21:46:28.220Z,65.81
2023-02-19T21:51:37.199Z,65.86
2023-02-19T21:56:47.218Z,65.92
2023-02-19T22:01:58.165Z,65.94
2023-02-19T22:07:08.696Z,65.84
2023-02-19T22:12:16.128Z,65.97
2023-02-19T22:17:23.867Z,65.90
2023-02-19T22:22:31.317Z,65.91
2023-02-19T22:27:38.792Z,66.08
2023-02-19T22:32:46.272Z,65.93
2023-02-19T22:37:53.573Z,66.15
2023-02-19T22:43:00.809Z,66.22
2023-02-19T22:48:08.455Z,66.27
2023-02-19T22:53:16.673Z,66.30
2023-02-19T22:58:23.962Z,66.32
2023-02-19T23:03:31.167Z,66.25
2023-02-19T23:08:38.363Z,66.38
2023-02-19T23:13:45.787Z,66.39
2023-02-19T23:18:52.891Z,66.41
2023-02-19T23:24:00.488Z,66.47
2023-02-19T23:29:07.685Z,66.56
2023-02-19T23:34:15.102Z,66.62
2023-02-19T23:39:24.279Z,66.66
2023-02-19T23:44:31.473Z,66.67
2023-02-19T23:49:38.676Z,66.72
2023-02-19T23:54:45.976Z,66.79
2023-02-19T23:59:53.304Z,66.73
